Time;durP1;ratioP1;P1;durP2;ratioP2;P2;SDS_P1;SDS_P2;PMS_P1;PMS_P2;Temp;Humidity;BMP_temperature;BMP_pressure;BME280_temperature;BME280_humidity;BME280_pressure;Samples;Min_cycle;Max_cycle;Signal;HPM_P1;HPM_P2
2022/05/25 00:02:24;;;;;;;8.75;6.50;;;11.20;99.90;;;;;;5013282;28;20063;-68
2022/05/25 00:04:51;;;;;;;9.05;7.07;;;11.20;99.90;;;;;;5047130;28;20076;-68
2022/05/25 00:07:18;;;;;;;7.57;6.40;;;11.20;99.90;;;;;;5062440;28;20077;-67
2022/05/25 00:09:43;;;;;;;8.40;7.32;;;11.20;99.90;;;;;;5009485;28;20053;-68
2022/05/25 00:12:10;;;;;;;7.97;7.22;;;11.20;99.90;;;;;;5009555;28;20046;-68
2022/05/25 00:14:36;;;;;;;7.97;7.07;;;11.20;99.90;;;;;;5009662;28;20085;-68
2022/05/25 00:17:03;;;;;;;8.13;7.32;;;11.10;99.90;;;;;;5004027;28;20633;-68
2022/05/25 00:22:13;;;;;;;12.32;7.40;;;11.30;99.90;;;;;;5006311;28;20077;-68
2022/05/25 00:24:39;;;;;;;9.48;7.50;;;11.20;99.90;;;;;;4973735;28;20073;-68
2022/05/25 00:27:05;;;;;;;10.20;7.60;;;11.20;99.90;;;;;;5006084;28;20047;-68
2022/05/25 00:29:31;;;;;;;8.75;7.78;;;11.30;99.90;;;;;;5006077;28;20133;-68
2022/05/25 00:31:57;;;;;;;8.68;7.78;;;11.40;99.90;;;;;;5008565;28;20042;-68
2022/05/25 00:34:22;;;;;;;9.95;7.75;;;11.20;99.90;;;;;;5025655;28;20133;-68
2022/05/25 00:36:48;;;;;;;9.05;7.97;;;11.40;99.90;;;;;;5044085;28;20045;-68
2022/05/25 00:39:14;;;;;;;9.65;8.10;;;11.20;99.90;;;;;;5009244;28;20060;-68
2022/05/25 00:41:40;;;;;;;9.30;8.27;;;11.20;99.90;;;;;;4992782;28;20081;-68
2022/05/25 00:44:06;;;;;;;9.00;7.80;;;11.10;99.90;;;;;;5007516;28;20042;-68
2022/05/25 00:46:34;;;;;;;10.40;8.05;;;11.00;99.90;;;;;;5008047;28;20053;-68
2022/05/25 00:49:04;;;;;;;9.45;8.10;;;11.10;99.90;;;;;;5007259;28;20445;-68
2022/05/25 00:51:41;;;;;;;;;;;11.00;99.90;;;;;;4989788;28;20053;-68
2022/05/25 00:54:14;;;;;;;8.32;7.53;;;10.80;99.90;;;;;;5005651;28;19929;-68
2022/05/25 00:56:43;;;;;;;8.35;7.55;;;10.70;99.90;;;;;;5007157;28;20053;-68
2022/05/25 00:59:16;;;;;;;12.27;7.57;;;10.70;99.90;;;;;;4989466;28;20122;-68
2022/05/25 01:01:42;;;;;;;9.95;8.27;;;10.60;99.90;;;;;;5006869;28;20104;-68
2022/05/25 01:04:09;;;;;;;9.00;8.15;;;10.60;99.90;;;;;;5009879;28;20072;-68
2022/05/25 01:07:21;;;;;;;9.48;8.45;;;10.60;99.90;;;;;;5026066;28;20462;-68
2022/05/25 01:09:55;;;;;;;8.18;7.32;;;10.70;99.90;;;;;;5032981;28;20053;-68
2022/05/25 01:12:39;;;;;;;9.50;7.25;;;10.70;99.90;;;;;;5008583;28;20099;-68
2022/05/25 01:15:20;;;;;;;10.10;7.65;;;10.70;99.90;;;;;;5026057;28;20045;-68
2022/05/25 01:18:04;;;;;;;9.13;7.63;;;10.70;99.90;;;;;;5025778;28;20061;-68
2022/05/25 01:21:01;;;;;;;8.57;7.70;;;10.80;99.90;;;;;;5025622;28;20105;-68
2022/05/25 01:24:02;;;;;;;9.52;7.70;;;10.70;99.90;;;;;;5025623;28;20069;-68
2022/05/25 01:26:46;;;;;;;9.57;7.55;;;10.80;99.90;;;;;;5026176;28;20060;-68
2022/05/25 01:29:53;;;;;;;12.13;8.30;;;10.80;99.90;;;;;;5024966;28;20061;-68
2022/05/25 01:32:26;;;;;;;8.98;7.93;;;10.70;99.90;;;;;;5006413;28;20514;-68
2022/05/25 01:35:08;;;;;;;10.70;7.43;;;10.60;99.90;;;;;;5028452;28;20037;-68
2022/05/25 01:37:53;;;;;;;15.13;8.35;;;10.60;99.90;;;;;;5007157;28;20112;-68
2022/05/25 01:41:02;;;;;;;8.90;8.00;;;10.60;99.90;;;;;;5022856;28;20121;-68
2022/05/25 01:43:50;;;;;;;10.60;7.72;;;10.70;99.90;;;;;;4964294;28;20051;-68
2022/05/25 01:46:32;;;;;;;8.10;7.30;;;10.60;99.90;;;;;;4963375;28;20055;-68
2022/05/25 01:49:01;;;;;;;9.25;8.27;;;10.70;99.90;;;;;;4970466;28;20075;-68
2022/05/25 01:51:33;;;;;;;10.00;7.68;;;10.70;99.90;;;;;;4965342;28;20649;-68
2022/05/25 01:54:03;;;;;;;10.60;9.10;;;10.70;99.90;;;;;;4965469;28;20048;-68
2022/05/25 01:56:32;;;;;;;8.00;7.20;;;10.60;99.90;;;;;;4967685;28;20062;-68
2022/05/25 01:59:02;;;;;;;10.63;8.88;;;10.60;99.90;;;;;;4965067;28;20047;-68
2022/05/25 02:01:28;;;;;;;10.32;7.80;;;10.70;99.90;;;;;;4963989;28;20086;-68
2022/05/25 02:07:07;;;;;;;11.20;8.00;;;10.60;99.90;;;;;;4948663;29;20050;-68
2022/05/25 02:09:50;;;;;;;9.40;8.40;;;10.60;99.90;;;;;;4948187;29;20141;-67
2022/05/25 02:12:35;;;;;;;9.43;8.30;;;10.60;99.90;;;;;;4949007;28;20101;-67
2022/05/25 02:15:12;;;;;;;8.90;8.00;;;10.60;99.90;;;;;;4953064;29;20134;-68
2022/05/25 02:17:54;;;;;;;9.38;7.68;;;10.60;99.90;;;;;;4983032;28;20098;-68
2022/05/25 02:20:30;;;;;;;9.45;8.40;;;10.60;99.90;;;;;;5044385;28;20057;-67
2022/05/25 02:23:02;;;;;;;8.30;7.40;;;10.70;99.90;;;;;;5040926;28;20049;-68
2022/05/25 02:25:36;;;;;;;11.40;8.85;;;10.70;99.90;;;;;;5044426;28;20056;-68
2022/05/25 02:28:09;;;;;;;12.15;9.35;;;10.60;99.90;;;;;;5047730;28;20064;-68
2022/05/25 02:30:40;;;;;;;11.98;9.43;;;10.60;99.90;;;;;;5030623;28;20513;-67
2022/05/25 02:33:21;;;;;;;9.35;7.90;;;10.60;99.90;;;;;;5045343;28;20091;-68
2022/05/25 02:35:48;;;;;;;10.98;8.80;;;10.50;99.90;;;;;;5041834;28;20057;-68
2022/05/25 02:38:15;;;;;;;11.68;9.40;;;10.60;99.90;;;;;;5030493;28;20055;-67
2022/05/25 02:40:41;;;;;;;11.05;9.15;;;10.50;99.90;;;;;;5043875;28;20060;-68
2022/05/25 02:43:08;;;;;;;11.73;9.02;;;10.50;99.90;;;;;;5032273;28;20045;-68
2022/05/25 02:45:35;;;;;;;10.68;9.68;;;10.40;99.90;;;;;;5030991;28;20060;-68
2022/05/25 02:48:02;;;;;;;11.40;8.98;;;10.50;99.90;;;;;;5033294;28;20075;-68
2022/05/25 02:50:27;;;;;;;13.55;10.70;;;10.40;99.90;;;;;;5059394;28;20072;-68
2022/05/25 02:52:53;;;;;;;12.57;10.32;;;10.40;99.90;;;;;;5025860;28;20065;-68
2022/05/25 02:55:19;;;;;;;14.00;10.25;;;10.50;99.90;;;;;;5031616;28;20083;-68
2022/05/25 02:57:45;;;;;;;12.77;10.23;;;10.50;99.90;;;;;;5031038;28;20050;-68
2022/05/25 03:00:12;;;;;;;11.45;9.85;;;10.50;99.90;;;;;;5028199;28;20106;-67
2022/05/25 03:02:39;;;;;;;9.93;8.88;;;10.50;99.90;;;;;;5030568;28;20080;-68
2022/05/25 03:05:07;;;;;;;11.55;10.23;;;10.50;99.90;;;;;;5031565;28;20071;-68
2022/05/25 03:07:32;;;;;;;12.85;10.70;;;10.50;99.90;;;;;;5026778;28;20774;-67
2022/05/25 03:09:58;;;;;;;13.55;11.15;;;10.50;99.90;;;;;;5032820;28;20057;-68
2022/05/25 03:12:24;;;;;;;13.48;10.68;;;10.40;99.90;;;;;;5047895;28;20225;-67
2022/05/25 03:14:50;;;;;;;13.38;10.68;;;10.40;99.90;;;;;;5047780;28;20045;-68
2022/05/25 03:17:15;;;;;;;12.30;10.88;;;10.40;99.90;;;;;;5042890;28;20076;-68
2022/05/25 03:19:48;;;;;;;12.90;11.23;;;10.30;99.90;;;;;;5031772;28;20084;-68
2022/05/25 03:22:13;;;;;;;13.57;10.98;;;10.40;99.90;;;;;;5034119;28;20124;-68
2022/05/25 03:24:39;;;;;;;14.57;11.07;;;10.60;99.90;;;;;;5034793;28;20053;-68
2022/05/25 03:27:05;;;;;;;14.40;11.77;;;10.40;99.90;;;;;;5033602;28;20087;-68
2022/05/25 03:29:31;;;;;;;18.13;11.05;;;10.40;99.90;;;;;;5029323;28;20053;-68
2022/05/25 03:31:57;;;;;;;13.70;11.38;;;10.50;99.90;;;;;;5032053;28;20038;-68
2022/05/25 03:34:23;;;;;;;14.35;11.77;;;10.30;99.90;;;;;;5033111;28;20048;-68
2022/05/25 03:36:49;;;;;;;17.75;12.05;;;10.30;99.90;;;;;;5031777;28;20045;-67
2022/05/25 03:39:15;;;;;;;13.07;10.65;;;10.30;99.90;;;;;;5049218;28;20041;-67
2022/05/25 03:41:40;;;;;;;12.75;10.38;;;10.40;99.90;;;;;;5031282;28;20520;-67
2022/05/25 03:44:07;;;;;;;12.40;10.00;;;10.40;99.90;;;;;;5014458;28;20080;-68
2022/05/25 03:46:32;;;;;;;14.45;10.77;;;10.40;99.90;;;;;;5014699;28;20050;-68
2022/05/25 03:48:58;;;;;;;14.50;11.20;;;10.40;99.90;;;;;;5024676;28;20183;-68
2022/05/25 03:51:24;;;;;;;14.05;11.70;;;10.40;99.90;;;;;;5047772;28;20045;-67
2022/05/25 03:53:50;;;;;;;13.65;11.30;;;10.40;99.90;;;;;;5013415;28;20056;-67
2022/05/25 03:56:16;;;;;;;13.07;11.05;;;10.30;99.90;;;;;;5044355;28;20071;-68
2022/05/25 03:58:43;;;;;;;13.05;11.65;;;10.30;99.90;;;;;;5043644;28;20096;-68
2022/05/25 04:01:09;;;;;;;13.25;11.68;;;10.30;99.90;;;;;;5029480;28;20057;-68
2022/05/25 04:03:35;;;;;;;15.48;11.90;;;10.10;99.90;;;;;;5032878;28;20521;-68
2022/05/25 04:06:01;;;;;;;14.35;12.85;;;10.20;99.90;;;;;;5029228;28;20049;-68
2022/05/25 04:08:26;;;;;;;14.80;12.98;;;10.30;99.90;;;;;;5029824;28;20124;-68
2022/05/25 04:10:52;;;;;;;14.57;12.93;;;10.40;99.90;;;;;;5032313;28;20050;-68
2022/05/25 04:13:19;;;;;;;14.73;12.57;;;10.30;99.90;;;;;;5031374;28;20037;-67
2022/05/25 04:15:45;;;;;;;15.85;13.60;;;10.20;99.90;;;;;;5031569;28;20058;-68
2022/05/25 04:18:10;;;;;;;14.50;12.85;;;10.10;99.90;;;;;;5024154;28;20053;-68
2022/05/25 04:20:36;;;;;;;16.10;13.75;;;10.10;99.90;;;;;;5026790;28;20060;-67
2022/05/25 04:23:02;;;;;;;14.95;12.65;;;10.20;99.90;;;;;;5027046;28;20098;-67
2022/05/25 04:25:29;;;;;;;17.75;13.30;;;10.20;99.90;;;;;;5025116;28;20061;-67
2022/05/25 04:27:56;;;;;;;16.58;12.60;;;10.30;99.90;;;;;;5006897;28;20037;-68
2022/05/25 04:30:25;;;;;;;14.73;13.02;;;10.30;99.90;;;;;;5007505;28;20049;-68
2022/05/25 04:32:52;;;;;;;14.80;13.20;;;10.30;99.90;;;;;;5009146;28;20038;-68
2022/05/25 04:35:18;;;;;;;14.95;13.32;;;10.30;99.90;;;;;;5026171;28;20520;-68
2022/05/25 04:37:52;;;;;;;16.63;13.50;;;10.30;99.90;;;;;;5026953;28;20038;-67
2022/05/25 04:40:30;;;;;;;18.08;13.68;;;10.40;99.90;;;;;;5005666;28;20050;-67
2022/05/25 04:42:58;;;;;;;17.25;14.02;;;10.50;99.90;;;;;;5008336;28;20085;-67
2022/05/25 04:45:28;;;;;;;17.38;12.75;;;10.40;99.90;;;;;;5013049;28;20045;-68
2022/05/25 04:47:55;;;;;;;15.02;12.80;;;10.30;99.90;;;;;;5008254;28;20050;-68
2022/05/25 04:50:22;;;;;;;15.35;13.20;;;10.50;99.90;;;;;;5008654;28;20065;-68
2022/05/25 04:52:49;;;;;;;14.40;12.88;;;10.50;99.90;;;;;;5003702;28;20046;-68
2022/05/25 04:58:00;;;;;;;19.15;14.73;;;10.70;99.90;;;;;;5008560;28;20140;-67
2022/05/25 05:00:27;;;;;;;15.30;13.05;;;10.70;99.90;;;;;;5027756;28;20042;-68
2022/05/25 05:02:53;;;;;;;18.05;13.68;;;10.80;99.90;;;;;;4995279;28;20050;-68
2022/05/25 05:05:19;;;;;;;19.20;14.48;;;10.80;99.90;;;;;;5021427;28;20042;-68
2022/05/25 05:07:46;;;;;;;18.60;14.57;;;11.10;99.90;;;;;;5012026;28;20403;-68
2022/05/25 05:10:12;;;;;;;15.65;13.35;;;10.80;99.90;;;;;;5008648;28;20057;-68
2022/05/25 05:12:42;;;;;;;16.67;14.48;;;10.90;99.90;;;;;;5013514;28;20061;-68
2022/05/25 05:15:09;;;;;;;21.50;14.30;;;10.80;99.90;;;;;;5006869;28;20068;-68
2022/05/25 05:17:34;;;;;;;19.45;14.73;;;10.90;99.90;;;;;;5012979;28;20089;-68
2022/05/25 05:20:01;;;;;;;17.58;14.55;;;11.00;99.90;;;;;;5022058;28;20049;-68
2022/05/25 05:22:26;;;;;;;18.48;14.45;;;11.00;99.90;;;;;;5029589;28;20053;-68
2022/05/25 05:24:52;;;;;;;21.88;14.45;;;11.00;99.90;;;;;;5036123;28;20621;-68
2022/05/25 05:27:18;;;;;;;16.23;13.35;;;11.30;99.90;;;;;;5044190;28;20176;-68
2022/05/25 05:29:43;;;;;;;16.77;13.40;;;11.10;99.90;;;;;;5026553;28;20076;-66
2022/05/25 05:32:10;;;;;;;17.88;14.18;;;11.20;99.90;;;;;;4997643;28;20422;-63
2022/05/25 05:34:37;;;;;;;18.60;16.48;;;11.20;99.90;;;;;;5002328;28;20557;-65
2022/05/25 05:37:17;;;;;;;18.77;14.45;;;11.30;99.90;;;;;;5010246;28;20289;-65
2022/05/25 05:39:46;;;;;;;16.25;14.20;;;11.30;99.90;;;;;;5051633;28;20474;-65
2022/05/25 05:42:15;;;;;;;18.92;14.93;;;11.30;99.90;;;;;;5019811;28;20061;-64
2022/05/25 05:44:49;;;;;;;17.48;13.52;;;11.50;99.90;;;;;;5023434;28;20045;-64
2022/05/25 05:47:19;;;;;;;19.15;14.23;;;11.50;99.90;;;;;;5019377;28;20199;-64
2022/05/25 05:49:44;;;;;;;;;;;11.60;99.90;;;;;;5019973;28;20120;-64
2022/05/25 05:52:11;;;;;;;20.10;14.63;;;11.70;99.90;;;;;;5024776;28;20353;-63
2022/05/25 05:54:38;;;;;;;19.00;13.55;;;11.70;99.90;;;;;;5019053;28;20076;-63
2022/05/25 05:57:04;;;;;;;17.67;14.60;;;11.80;99.90;;;;;;5041551;28;20048;-63
2022/05/25 05:59:30;;;;;;;15.95;13.48;;;11.90;99.90;;;;;;5021090;28;20045;-65
2022/05/25 06:01:56;;;;;;;16.73;14.13;;;11.80;99.90;;;;;;5005344;28;20086;-63
2022/05/25 06:04:22;;;;;;;17.00;12.88;;;12.00;99.90;;;;;;5022351;28;20112;-63
2022/05/25 06:06:49;;;;;;;17.70;13.32;;;12.00;99.90;;;;;;5037146;28;20075;-65
2022/05/25 06:09:16;;;;;;;20.33;13.85;;;12.20;99.90;;;;;;5025414;28;20057;-63
2022/05/25 06:11:42;;;;;;;18.80;13.40;;;12.10;99.90;;;;;;5021764;28;20049;-65
2022/05/25 06:14:10;;;;;;;18.75;13.38;;;12.20;99.90;;;;;;5024369;28;20050;-65
2022/05/25 06:19:26;;;;;;;16.45;13.63;;;12.20;99.90;;;;;;4996682;28;20050;-63
2022/05/25 06:22:05;;;;;;;17.88;14.27;;;12.40;99.90;;;;;;5015528;28;20089;-65
2022/05/25 06:24:37;;;;;;;18.90;13.70;;;12.30;99.90;;;;;;4999488;28;20122;-66
2022/05/25 06:27:04;;;;;;;17.58;14.48;;;12.30;99.90;;;;;;5003678;28;20293;-65
2022/05/25 06:29:29;;;;;;;18.88;14.27;;;12.50;99.90;;;;;;5003650;28;20050;-65
2022/05/25 06:31:55;;;;;;;19.95;14.50;;;12.50;99.90;;;;;;4967491;28;20054;-65
2022/05/25 06:34:20;;;;;;;18.65;13.73;;;12.60;99.90;;;;;;4999497;28;20045;-65
2022/05/25 06:36:49;;;;;;;19.85;14.15;;;12.60;99.90;;;;;;4999226;28;20058;-65
2022/05/25 06:39:15;;;;;;;17.30;13.77;;;12.70;99.90;;;;;;5021789;28;20092;-64
2022/05/25 06:41:41;;;;;;;15.45;13.05;;;12.70;99.90;;;;;;4993968;28;20045;-65
2022/05/25 06:44:06;;;;;;;19.67;14.18;;;12.70;99.90;;;;;;5014191;28;20042;-65
2022/05/25 06:46:32;;;;;;;19.42;13.90;;;12.80;99.90;;;;;;5013538;28;20280;-65
2022/05/25 06:48:58;;;;;;;16.27;13.05;;;12.70;99.90;;;;;;5005959;28;20053;-65
2022/05/25 06:51:29;;;;;;;14.85;12.93;;;12.90;99.90;;;;;;4990700;28;20053;-65
2022/05/25 06:53:56;;;;;;;18.52;14.15;;;12.90;99.90;;;;;;5006708;28;20053;-65
2022/05/25 06:56:24;;;;;;;18.05;13.10;;;12.90;99.90;;;;;;5013158;28;20061;-68
2022/05/25 06:58:52;;;;;;;17.38;12.20;;;13.00;99.90;;;;;;5009775;28;20041;-67
2022/05/25 07:01:18;;;;;;;15.35;13.15;;;13.00;99.90;;;;;;4995549;28;20059;-67
2022/05/25 07:03:44;;;;;;;19.58;14.57;;;13.10;99.90;;;;;;5007492;28;20263;-67
2022/05/25 07:06:12;;;;;;;19.52;13.55;;;13.10;99.90;;;;;;4995610;28;20076;-67
2022/05/25 07:08:38;;;;;;;17.58;12.93;;;13.30;99.90;;;;;;5015575;28;20049;-67
2022/05/25 07:11:05;;;;;;;19.50;12.93;;;13.30;99.90;;;;;;4995183;28;20061;-67
2022/05/25 07:13:30;;;;;;;20.55;12.80;;;13.30;99.90;;;;;;5011824;28;20105;-67
2022/05/25 07:15:59;;;;;;;15.70;12.57;;;13.50;99.90;;;;;;4987216;28;20507;-67
2022/05/25 07:18:26;;;;;;;17.65;11.48;;;13.40;99.90;;;;;;5019027;28;20053;-66
2022/05/25 07:20:52;;;;;;;15.30;11.55;;;13.60;99.90;;;;;;4991384;28;20532;-67
2022/05/25 07:23:19;;;;;;;17.52;11.75;;;13.60;99.90;;;;;;5012551;28;20065;-66
2022/05/25 07:25:46;;;;;;;14.93;11.30;;;13.70;99.90;;;;;;4989224;28;20117;-67
2022/05/25 07:28:12;;;;;;;21.33;12.93;;;13.80;99.90;;;;;;5016581;28;20042;-67
2022/05/25 07:30:38;;;;;;;17.08;12.05;;;13.90;99.90;;;;;;4985459;28;20695;-67
2022/05/25 07:33:05;;;;;;;17.95;11.50;;;14.00;99.90;;;;;;5017044;28;20061;-66
2022/05/25 07:35:31;;;;;;;16.98;11.07;;;14.00;99.90;;;;;;4985467;28;20048;-66
2022/05/25 07:37:58;;;;;;;13.50;10.10;;;14.20;99.90;;;;;;5012402;28;20117;-67
2022/05/25 07:40:36;;;;;;;18.65;11.93;;;14.20;99.90;;;;;;5005756;28;20065;-67
2022/05/25 07:43:08;;;;;;;13.93;10.50;;;14.10;99.90;;;;;;4989395;28;20259;-67
2022/05/25 07:45:35;;;;;;;12.43;10.70;;;14.20;99.90;;;;;;5000178;28;20443;-67
2022/05/25 07:48:01;;;;;;;14.98;9.85;;;14.30;99.90;;;;;;4991275;28;20112;-67
2022/05/25 07:50:28;;;;;;;13.40;10.13;;;14.40;99.90;;;;;;5004228;28;20073;-66
2022/05/25 07:52:57;;;;;;;9.68;7.95;;;14.40;99.90;;;;;;5010716;28;20054;-66
2022/05/25 07:55:22;;;;;;;10.52;8.73;;;14.60;99.90;;;;;;5003956;28;20045;-67
2022/05/25 07:57:48;;;;;;;11.15;8.18;;;14.60;99.90;;;;;;5007525;28;20047;-67
2022/05/25 08:00:16;;;;;;;10.73;7.68;;;14.70;99.90;;;;;;5000584;28;20437;-67
2022/05/25 08:05:49;;;;;;;10.98;8.57;;;14.70;99.90;;;;;;5034159;28;20046;-67
2022/05/25 08:08:17;;;;;;;11.98;9.07;;;14.80;99.90;;;;;;4970061;28;20759;-67
2022/05/25 08:10:47;;;;;;;12.45;7.90;;;14.80;99.90;;;;;;5000869;28;20178;-67
2022/05/25 08:13:17;;;;;;;9.80;6.60;;;14.80;99.90;;;;;;4975459;28;20639;-67
2022/05/25 08:15:44;;;;;;;9.50;6.97;;;14.90;99.90;;;;;;5000789;28;20046;-67
2022/05/25 08:18:15;;;;;;;10.35;7.82;;;14.90;99.90;;;;;;4987844;28;20103;-67
2022/05/25 08:20:42;;;;;;;9.77;7.15;;;15.00;99.90;;;;;;5019761;28;20053;-67
2022/05/25 08:23:10;;;;;;;10.70;6.93;;;15.00;99.90;;;;;;5043531;28;20584;-67
2022/05/25 08:25:37;;;;;;;9.73;6.97;;;15.00;99.90;;;;;;5019404;28;20064;-66
2022/05/25 08:28:03;;;;;;;8.10;5.78;;;15.10;99.90;;;;;;5027404;28;20041;-66
2022/05/25 08:30:30;;;;;;;7.90;5.25;;;15.20;99.90;;;;;;4992222;28;20401;-67
2022/05/25 08:32:56;;;;;;;7.53;5.97;;;15.40;99.90;;;;;;5027282;28;20052;-67
2022/05/25 08:35:22;;;;;;;8.68;6.00;;;15.30;99.90;;;;;;5020619;28;20106;-67
2022/05/25 08:37:48;;;;;;;5.78;5.28;;;15.30;99.90;;;;;;5020093;28;20049;-67
2022/05/25 08:40:18;;;;;;;7.53;5.25;;;15.50;99.90;;;;;;5020001;28;20055;-67
2022/05/25 08:42:51;;;;;;;;;;;15.50;99.90;;;;;;5008734;28;20143;-67
2022/05/25 08:45:20;;;;;;;7.03;4.90;;;15.50;99.90;;;;;;5054085;28;19933;-67
2022/05/25 08:47:50;;;;;;;6.38;4.78;;;15.50;99.90;;;;;;5012435;28;20695;-67
2022/05/25 08:50:17;;;;;;;5.90;4.07;;;15.70;99.90;;;;;;5022288;28;20049;-67
2022/05/25 08:52:44;;;;;;;8.05;5.18;;;15.70;99.90;;;;;;5008469;28;20056;-67
2022/05/25 08:55:47;;;;;;;5.57;4.07;;;15.80;99.90;;;;;;5020945;28;20046;-67
2022/05/25 08:58:14;;;;;;;6.40;4.95;;;15.90;99.90;;;;;;5026248;28;20092;-67
2022/05/25 09:00:43;;;;;;;6.00;4.85;;;15.90;99.90;;;;;;5019274;28;20053;-67
2022/05/25 09:03:35;;;;;;;7.20;5.00;;;16.00;99.90;;;;;;5028146;28;20087;-67
2022/05/25 09:06:33;;;;;;;9.43;6.38;;;16.20;99.90;;;;;;5008436;28;20048;-67
2022/05/25 09:09:15;;;;;;;5.63;5.07;;;16.20;99.90;;;;;;5048890;28;20091;-67
2022/05/25 09:11:52;;;;;;;6.60;5.28;;;16.30;99.90;;;;;;5012691;28;20064;-67
2022/05/25 09:14:56;;;;;;;7.50;4.70;;;16.40;99.90;;;;;;5021249;28;20124;-67
2022/05/25 09:17:32;;;;;;;7.68;5.20;;;16.30;99.90;;;;;;5006488;28;20176;-67
2022/05/25 09:19:59;;;;;;;6.78;4.57;;;16.50;99.90;;;;;;5023557;28;20369;-67
2022/05/25 09:22:26;;;;;;;6.57;5.38;;;16.50;99.90;;;;;;5021422;28;20476;-67
2022/05/25 09:25:00;;;;;;;4.95;4.40;;;16.60;99.90;;;;;;5025620;28;20042;-67
2022/05/25 09:27:36;;;;;;;8.05;4.95;;;16.60;99.90;;;;;;5021766;28;20052;-67
2022/05/25 09:30:03;;;;;;;8.50;5.20;;;16.50;99.90;;;;;;5025118;28;20045;-68
2022/05/25 09:32:42;;;;;;;5.95;5.20;;;16.50;99.90;;;;;;4996550;28;20063;-67
2022/05/25 09:35:24;;;;;;;5.97;4.47;;;16.50;99.90;;;;;;5026155;28;20041;-67
2022/05/25 09:38:00;;;;;;;5.28;4.32;;;16.50;99.90;;;;;;5024616;28;20040;-67
2022/05/25 09:40:38;;;;;;;5.28;4.38;;;16.50;99.90;;;;;;5020166;28;20115;-67
2022/05/25 09:43:09;;;;;;;7.38;3.97;;;16.70;99.90;;;;;;5042721;28;20284;-67
2022/05/25 09:45:45;;;;;;;4.85;4.18;;;16.80;99.90;;;;;;5035401;28;20057;-67
2022/05/25 09:48:16;;;;;;;6.32;4.57;;;16.90;99.90;;;;;;5011610;28;20045;-67
2022/05/25 09:50:45;;;;;;;4.60;3.97;;;16.90;99.90;;;;;;5021891;28;20037;-67
2022/05/25 09:53:17;;;;;;;7.10;5.03;;;17.00;99.90;;;;;;5028565;28;20091;-67
2022/05/25 09:55:52;;;;;;;6.22;4.85;;;16.80;99.90;;;;;;5002398;28;20045;-67
2022/05/25 09:58:33;;;;;;;6.07;4.63;;;16.80;99.90;;;;;;5009308;28;20057;-66
2022/05/25 10:01:06;;;;;;;5.15;4.65;;;16.90;99.90;;;;;;5018022;28;20072;-66
2022/05/25 10:03:41;;;;;;;5.43;4.93;;;16.70;99.90;;;;;;5026121;28;20049;-66
2022/05/25 10:06:31;;;;;;;6.25;4.78;;;16.80;99.90;;;;;;5019311;28;20041;-66
2022/05/25 10:09:08;;;;;;;7.20;4.38;;;16.80;99.90;;;;;;5011456;28;20112;-66
2022/05/25 10:11:57;;;;;;;6.25;4.05;;;17.00;99.90;;;;;;5005770;28;20142;-66
2022/05/25 10:14:26;;;;;;;4.75;4.35;;;17.10;99.90;;;;;;5026316;28;20057;-66
2022/05/25 10:16:54;;;;;;;5.55;4.40;;;17.00;99.90;;;;;;5014912;28;20044;-66
2022/05/25 10:19:22;;;;;;;6.00;4.00;;;17.00;99.90;;;;;;5011467;28;20093;-68
2022/05/25 10:21:52;;;;;;;5.72;4.32;;;17.20;99.90;;;;;;4995363;28;20054;-66
2022/05/25 10:24:31;;;;;;;8.27;4.53;;;17.30;99.90;;;;;;5012798;28;20141;-66
2022/05/25 10:26:59;;;;;;;5.97;5.00;;;17.40;99.90;;;;;;4978142;28;20049;-66
2022/05/25 10:38:29;;;;;;;6.20;3.72;;;17.20;99.90;;;;;;5021077;28;20056;-67
2022/05/25 10:40:57;;;;;;;5.45;4.50;;;17.20;99.90;;;;;;4999044;28;20065;-66
2022/05/25 10:43:30;;;;;;;6.68;4.35;;;17.20;99.90;;;;;;5022483;28;20042;-66
2022/05/25 10:46:00;;;;;;;5.40;3.70;;;17.30;99.90;;;;;;5016594;28;20042;-66
2022/05/25 10:48:44;;;;;;;;;;;17.30;99.90;;;;;;5007737;28;20080;-67
2022/05/25 10:51:27;;;;;;;5.00;4.20;;;17.30;99.90;;;;;;4999296;28;19922;-66
2022/05/25 10:57:37;;;;;;;6.45;4.50;;;17.30;99.90;;;;;;4992571;28;20281;-66
2022/05/25 11:00:25;;;;;;;7.07;5.05;;;17.20;99.90;;;;;;4961922;28;20055;-67
2022/05/25 11:03:13;;;;;;;6.23;5.03;;;17.40;99.90;;;;;;4962508;28;20059;-66
2022/05/25 11:06:00;;;;;;;5.65;5.15;;;17.60;99.90;;;;;;4944512;28;20207;-66
2022/05/25 11:09:05;;;;;;;9.20;5.90;;;17.80;99.90;;;;;;4964859;28;20074;-66
2022/05/25 11:11:58;;;;;;;8.00;6.25;;;17.90;99.90;;;;;;4934624;28;20055;-67
2022/05/25 11:15:01;;;;;;;7.38;5.05;;;18.10;99.90;;;;;;4955712;28;20047;-66
2022/05/25 11:17:41;;;;;;;7.20;4.65;;;18.00;99.90;;;;;;4949109;28;20096;-67
2022/05/25 11:20:24;;;;;;;7.07;5.50;;;17.90;99.90;;;;;;4967521;28;20101;-67
2022/05/25 11:23:20;;;;;;;8.60;5.93;;;17.90;99.90;;;;;;4962489;28;20043;-67
2022/05/25 11:26:17;;;;;;;6.30;4.78;;;18.00;99.90;;;;;;4980666;28;20105;-66
2022/05/25 11:28:54;;;;;;;5.78;5.25;;;18.20;99.90;;;;;;4986591;28;20050;-66
2022/05/25 11:31:36;;;;;;;5.00;3.80;;;18.30;99.90;;;;;;4970866;28;20063;-66
2022/05/25 11:34:11;;;;;;;5.13;3.30;;;18.10;99.90;;;;;;4948689;28;20065;-65
2022/05/25 11:36:55;;;;;;;5.82;3.42;;;18.20;99.90;;;;;;5019497;28;20116;-66
2022/05/25 11:39:44;;;;;;;5.22;4.57;;;18.50;99.90;;;;;;5014876;28;20139;-65
2022/05/25 11:42:10;;;;;;;6.97;3.38;;;18.60;99.90;;;;;;5032217;28;20107;-65
2022/05/25 11:44:56;;;;;;;6.68;3.67;;;18.60;99.90;;;;;;5032928;28;20062;-65
2022/05/25 11:47:59;;;;;;;4.90;3.30;;;18.40;99.90;;;;;;5002362;28;20053;-65
2022/05/25 11:50:42;;;;;;;6.40;3.90;;;18.20;99.90;;;;;;5022448;28;20058;-65
2022/05/25 11:53:32;;;;;;;6.68;3.67;;;18.20;99.90;;;;;;5012988;28;20136;-65
2022/05/25 11:56:05;;;;;;;;;;;18.00;99.90;;;;;;5012597;28;20101;-65
2022/05/25 11:58:52;;;;;;;5.13;3.80;;;17.90;99.90;;;;;;5011257;28;19921;-65
2022/05/25 12:01:46;;;;;;;6.53;4.32;;;17.70;99.90;;;;;;5024915;28;20076;-65
2022/05/25 12:04:29;;;;;;;7.50;4.30;;;17.70;99.90;;;;;;5010790;28;20079;-65
2022/05/25 12:07:04;;;;;;;5.10;4.30;;;17.60;99.90;;;;;;5013026;28;20041;-65
2022/05/25 12:09:46;;;;;;;6.07;5.47;;;17.40;99.90;;;;;;5052490;28;20053;-65
2022/05/25 12:12:24;;;;;;;9.10;6.60;;;17.30;99.90;;;;;;5011590;28;20050;-65
2022/05/25 12:15:22;;;;;;;7.05;6.32;;;17.20;99.90;;;;;;5038584;28;20049;-65
2022/05/25 12:17:58;;;;;;;9.40;7.57;;;17.10;99.90;;;;;;5032237;28;20060;-65
2022/05/25 12:20:34;;;;;;;8.27;7.18;;;16.90;99.90;;;;;;5027586;28;20460;-65
2022/05/25 12:23:06;;;;;;;9.15;8.25;;;16.20;99.90;;;;;;5011873;28;20471;-65
2022/05/25 12:25:35;;;;;;;11.80;9.38;;;15.50;99.90;;;;;;5038538;28;20102;-65
2022/05/25 12:28:02;;;;;;;13.45;9.65;;;14.90;99.90;;;;;;5009798;28;20467;-65
2022/05/25 12:30:39;;;;;;;13.90;9.88;;;14.30;99.90;;;;;;5019547;28;20049;-65
2022/05/25 12:33:07;;;;;;;14.63;11.55;;;14.50;99.90;;;;;;5009480;28;20045;-65
2022/05/25 12:35:36;;;;;;;12.48;10.88;;;14.40;99.90;;;;;;5037060;28;20060;-66
2022/05/25 12:38:06;;;;;;;14.40;12.20;;;14.80;99.90;;;;;;5039118;28;20049;-67
2022/05/25 12:40:41;;;;;;;12.68;11.38;;;15.20;99.90;;;;;;5027899;28;20061;-65
2022/05/25 12:43:39;;;;;;;14.63;11.35;;;15.50;99.90;;;;;;5023851;28;20476;-65
2022/05/25 12:49:00;;;;;;;11.75;10.60;;;16.40;99.90;;;;;;5024422;28;20333;-65
2022/05/25 12:51:39;;;;;;;9.85;8.82;;;16.60;99.90;;;;;;5021376;28;20056;-65
2022/05/25 12:54:41;;;;;;;12.88;10.00;;;16.70;99.90;;;;;;5009324;28;20075;-65
2022/05/25 12:57:34;;;;;;;10.07;9.13;;;17.10;99.90;;;;;;5026958;28;20079;-65
2022/05/25 13:00:20;;;;;;;10.48;8.10;;;17.30;99.90;;;;;;5047499;28;20045;-66
2022/05/25 13:02:45;;;;;;;8.57;7.68;;;17.20;99.90;;;;;;5018953;28;20071;-65
2022/05/25 13:05:46;;;;;;;6.60;5.95;;;17.00;99.90;;;;;;5033740;28;20160;-65
2022/05/25 13:08:46;;;;;;;6.63;5.70;;;16.70;99.90;;;;;;5032258;28;20229;-65
2022/05/25 13:11:41;;;;;;;6.93;5.30;;;16.70;99.90;;;;;;5023123;28;20042;-65
2022/05/25 13:14:24;;;;;;;6.28;5.75;;;16.70;99.90;;;;;;5038314;28;20053;-65
2022/05/25 13:17:03;;;;;;;7.68;4.97;;;16.50;99.90;;;;;;5039955;28;20657;-65
2022/05/25 13:19:41;;;;;;;9.30;5.15;;;16.50;99.90;;;;;;5022225;28;20053;-66
2022/05/25 13:22:22;;;;;;;5.95;3.63;;;16.70;99.90;;;;;;5047059;28;20041;-68
2022/05/25 13:25:17;;;;;;;7.85;3.55;;;17.00;99.90;;;;;;5032457;28;20060;-66
2022/05/25 13:28:18;;;;;;;5.85;3.17;;;17.20;99.90;;;;;;4994625;28;20439;-67
2022/05/25 13:31:03;;;;;;;6.93;3.40;;;17.70;99.90;;;;;;4965961;28;20058;-68
2022/05/25 13:33:40;;;;;;;5.55;3.45;;;18.00;99.90;;;;;;4965008;28;20096;-67
2022/05/25 13:36:08;;;;;;;6.22;3.25;;;18.00;99.90;;;;;;4971956;28;20415;-67
2022/05/25 13:38:48;;;;;;;8.65;3.40;;;18.10;99.90;;;;;;4974092;28;20046;-67